Hammersley Fork, Pennsylvania
Current Conditions -  °F | °C
As of 1:15 PM on Thursday 29 Jan 2015 (Local Time) from KN38 Reporting Station
Broken Clouds Broken Clouds  
Wind Chill:   Ceiling: 5000
Heat Index: 23°   Visibility: 10mi
Dew Point:   Wind: 17mph
Humidity: 46%   Direction: 180°S
Pressure: 29.91"   Gusts: 24mph
Location:  41.3916°N, 77.7796°W
Report Text: KN38 291815Z AUTO 18015G21KT 10SM BKN050 M05/M15 A2991 RMK AO2
Loading
Personal Weather Stations






























Interactive Weather Map New forecast layout! Learn more

10-Day Weather Forecast

Advertisements
Track Severe Weather on mobile